createdAt,value
2022-12-17T00:02:14.510Z,60.80
2022-12-17T00:05:00.435Z,63.57
2022-12-17T00:07:46.158Z,60.97
2022-12-17T00:10:31.871Z,61.70
2022-12-17T00:13:17.842Z,60.80
2022-12-17T00:16:11.205Z,64.53
2022-12-17T00:18:57.578Z,63.57
2022-12-17T00:21:43.624Z,63.97
2022-12-17T00:24:29.307Z,64.50
2022-12-17T00:27:15.120Z,60.80
2022-12-17T00:30:01.060Z,61.47
2022-12-17T00:32:47.211Z,62.67
2022-12-17T00:35:33.110Z,62.60
2022-12-17T00:38:19.960Z,62.47
2022-12-17T00:41:11.541Z,63.33
2022-12-17T00:43:57.465Z,63.33
2022-12-17T00:46:43.698Z,60.17
2022-12-17T00:49:29.991Z,60.70
2022-12-17T00:52:15.968Z,60.43
2022-12-17T00:55:02.015Z,62.10
2022-12-17T00:57:47.919Z,61.97
2022-12-17T01:00:34.416Z,61.63
2022-12-17T01:03:30.196Z,61.23
2022-12-17T01:06:21.766Z,60.27
2022-12-17T01:09:07.949Z,59.20
2022-12-17T01:11:56.501Z,59.23
2022-12-17T01:14:44.446Z,58.80
2022-12-17T01:17:30.992Z,59.07
2022-12-17T01:20:17.283Z,61.33
2022-12-17T01:23:05.168Z,59.80
2022-12-17T01:25:51.030Z,56.63
2022-12-17T01:28:44.245Z,58.23
2022-12-17T01:31:34.935Z,59.13
2022-12-17T01:34:21.636Z,59.30
2022-12-17T01:37:07.800Z,64.27
2022-12-17T01:39:54.002Z,63.47
2022-12-17T01:42:40.014Z,61.00
2022-12-17T01:45:31.307Z,61.90
2022-12-17T01:48:29.450Z,62.23
2022-12-17T01:51:16.796Z,59.30
2022-12-17T01:54:08.902Z,60.27
2022-12-17T01:56:59.799Z,60.90
2022-12-17T02:00:23.514Z,58.20
2022-12-17T02:03:09.843Z,58.47
2022-12-17T02:06:26.579Z,60.20
2022-12-17T02:09:21.004Z,59.70
2022-12-17T02:12:38.156Z,60.07
2022-12-17T02:15:39.213Z,64.00
2022-12-17T02:18:36.056Z,62.83
2022-12-17T02:21:24.151Z,64.87
2022-12-17T02:24:28.404Z,64.23
2022-12-17T02:27:25.124Z,65.17
2022-12-17T02:30:19.959Z,63.40
2022-12-17T02:33:08.267Z,63.07
2022-12-17T02:36:03.103Z,65.67
2022-12-17T02:38:50.922Z,61.50
2022-12-17T02:41:48.741Z,65.77
2022-12-17T02:44:37.915Z,62.50
2022-12-17T02:47:27.193Z,63.40
2022-12-17T02:50:13.959Z,62.37
2022-12-17T02:53:05.017Z,62.73
2022-12-17T02:55:52.474Z,63.67
2022-12-17T02:58:38.831Z,66.23
2022-12-17T03:01:25.810Z,64.10
2022-12-17T03:04:12.036Z,66.13
2022-12-17T03:06:58.280Z,64.17
2022-12-17T03:09:44.399Z,61.60
2022-12-17T03:12:30.176Z,63.37
2022-12-17T03:15:15.972Z,67.10
2022-12-17T03:18:01.784Z,64.30
2022-12-17T03:20:47.735Z,64.70
2022-12-17T03:23:34.049Z,64.07
2022-12-17T03:26:22.768Z,64.33
2022-12-17T03:29:08.965Z,61.80
2022-12-17T03:31:55.167Z,62.43
2022-12-17T03:34:41.290Z,61.37
2022-12-17T03:37:27.497Z,61.47
2022-12-17T03:40:13.283Z,61.40
2022-12-17T03:43:02.101Z,62.30
2022-12-17T03:45:48.166Z,59.87
2022-12-17T03:48:34.824Z,58.60
2022-12-17T03:51:20.913Z,57.00
2022-12-17T03:54:07.309Z,59.90
2022-12-17T03:56:53.245Z,60.23
2022-12-17T03:59:49.939Z,59.63
2022-12-17T04:02:35.841Z,60.30
2022-12-17T04:05:21.955Z,58.60
2022-12-17T04:08:08.175Z,57.73
2022-12-17T04:10:54.134Z,57.47
2022-12-17T04:13:43.059Z,56.20
2022-12-17T04:16:29.389Z,55.07
2022-12-17T04:19:15.128Z,55.53
2022-12-17T04:22:01.092Z,52.87
2022-12-17T04:24:47.272Z,54.00
2022-12-17T04:27:32.884Z,51.30
2022-12-17T04:30:18.737Z,53.73
2022-12-17T04:33:04.969Z,55.40
2022-12-17T04:35:51.080Z,52.00
2022-12-17T04:38:37.282Z,50.27
2022-12-17T04:41:23.129Z,52.23
2022-12-17T04:44:09.114Z,53.07
2022-12-17T04:46:55.425Z,50.27
2022-12-17T04:49:41.321Z,52.27
2022-12-17T04:52:27.210Z,50.70
2022-12-17T04:55:13.038Z,51.00
2022-12-17T04:57:58.836Z,50.23
2022-12-17T05:00:44.800Z,49.87
2022-12-17T05:03:34.302Z,51.23
2022-12-17T05:06:21.077Z,50.17
2022-12-17T05:09:07.548Z,48.83
2022-12-17T05:11:53.798Z,47.93
2022-12-17T05:14:39.841Z,47.93
2022-12-17T05:17:25.843Z,50.00
2022-12-17T05:20:11.695Z,48.33
2022-12-17T05:22:57.504Z,47.47
2022-12-17T05:25:43.468Z,45.83
2022-12-17T05:28:29.411Z,45.20
2022-12-17T05:31:15.787Z,44.50
2022-12-17T05:34:01.854Z,46.10
2022-12-17T05:36:47.720Z,45.30
2022-12-17T05:39:33.608Z,45.50
2022-12-17T05:42:19.295Z,45.63
2022-12-17T05:45:05.118Z,45.80
2022-12-17T05:47:51.381Z,46.57
2022-12-17T05:50:37.163Z,45.43
2022-12-17T05:53:24.252Z,44.93
2022-12-17T05:56:11.668Z,46.77
2022-12-17T05:58:58.350Z,47.20
2022-12-17T06:01:44.736Z,47.53
2022-12-17T06:04:31.127Z,44.77
2022-12-17T06:07:17.094Z,46.53
2022-12-17T06:10:02.995Z,45.77
2022-12-17T06:12:48.949Z,45.83
2022-12-17T06:15:35.836Z,45.83
2022-12-17T06:18:22.023Z,46.33
2022-12-17T06:21:07.831Z,44.70
2022-12-17T06:23:53.927Z,45.80
2022-12-17T06:26:39.940Z,44.03
2022-12-17T06:29:28.839Z,45.27
2022-12-17T06:32:14.630Z,44.37
2022-12-17T06:35:00.477Z,45.60
2022-12-17T06:37:46.622Z,44.30
2022-12-17T06:40:32.650Z,42.83
2022-12-17T06:43:18.512Z,44.00
2022-12-17T06:46:04.305Z,43.60
2022-12-17T06:49:01.096Z,42.30
2022-12-17T06:51:47.033Z,42.40
2022-12-17T06:54:32.840Z,43.50
2022-12-17T06:57:18.955Z,42.43
2022-12-17T07:00:04.777Z,40.97
2022-12-17T07:02:51.203Z,42.03
2022-12-17T07:05:37.144Z,42.93
2022-12-17T07:08:23.763Z,41.57
2022-12-17T07:11:09.541Z,41.60
2022-12-17T07:13:56.325Z,41.63
2022-12-17T07:16:42.252Z,41.30
2022-12-17T07:19:28.383Z,40.03
2022-12-17T07:22:15.111Z,39.03
2022-12-17T07:25:01.047Z,41.53
2022-12-17T07:27:47.076Z,43.30
2022-12-17T07:30:33.273Z,45.00
2022-12-17T07:33:21.958Z,43.90
2022-12-17T07:36:08.140Z,43.33
2022-12-17T07:38:54.185Z,41.40
2022-12-17T07:41:40.020Z,45.07
2022-12-17T07:44:25.852Z,41.77
2022-12-17T07:47:12.119Z,42.17
2022-12-17T07:49:58.011Z,40.37
2022-12-17T07:52:43.729Z,41.27
2022-12-17T07:55:29.681Z,41.80
2022-12-17T07:58:21.718Z,39.70
2022-12-17T08:01:12.139Z,41.90
2022-12-17T08:04:02.643Z,40.17
2022-12-17T08:06:48.330Z,40.67
2022-12-17T08:09:34.182Z,42.43
2022-12-17T08:12:20.360Z,40.50
2022-12-17T08:15:06.175Z,40.93
2022-12-17T08:17:52.188Z,40.97
2022-12-17T08:20:38.355Z,41.70
2022-12-17T08:23:25.150Z,41.43
2022-12-17T08:26:11.489Z,42.03
2022-12-17T08:28:57.562Z,41.63
2022-12-17T08:31:44.471Z,42.40
2022-12-17T08:34:30.647Z,44.57
2022-12-17T08:37:16.380Z,41.70
2022-12-17T08:40:02.448Z,41.27
2022-12-17T08:42:48.559Z,41.27
2022-12-17T08:45:34.512Z,43.17
2022-12-17T08:48:27.867Z,42.87
2022-12-17T08:51:13.698Z,42.23
2022-12-17T08:53:59.565Z,41.67
2022-12-17T08:56:45.759Z,42.53
2022-12-17T08:59:31.645Z,42.07
2022-12-17T09:02:17.727Z,41.77
2022-12-17T09:05:04.016Z,41.67
2022-12-17T09:07:50.005Z,40.07
2022-12-17T09:10:35.781Z,43.50
2022-12-17T09:13:23.233Z,43.10
2022-12-17T09:16:16.061Z,40.37
2022-12-17T09:19:02.486Z,39.43
2022-12-17T09:21:50.543Z,42.17
2022-12-17T09:24:36.784Z,40.70
2022-12-17T09:27:39.932Z,40.10
2022-12-17T09:30:26.645Z,42.13
2022-12-17T09:33:12.804Z,41.30
2022-12-17T09:35:59.363Z,41.33
2022-12-17T09:38:45.348Z,39.00
2022-12-17T09:41:52.042Z,40.90
2022-12-17T09:44:52.529Z,39.67
2022-12-17T09:48:12.202Z,40.40
2022-12-17T09:51:18.293Z,37.23
2022-12-17T09:54:12.570Z,37.07
2022-12-17T09:57:01.272Z,37.80
2022-12-17T09:59:52.506Z,38.17
2022-12-17T10:02:50.283Z,39.63
2022-12-17T10:05:48.218Z,36.00
2022-12-17T10:08:39.680Z,37.27
2022-12-17T10:11:47.792Z,37.53
2022-12-17T10:14:42.623Z,36.17
2022-12-17T10:17:46.569Z,38.17
2022-12-17T10:20:49.756Z,39.37
2022-12-17T10:23:48.067Z,38.00
2022-12-17T10:26:47.056Z,36.50
2022-12-17T10:29:42.547Z,37.43
2022-12-17T10:32:39.748Z,36.53
2022-12-17T10:35:54.516Z,40.00
2022-12-17T10:38:47.272Z,38.07
2022-12-17T10:41:48.267Z,41.37
2022-12-17T10:44:50.551Z,46.50
2022-12-17T10:47:47.128Z,38.93
2022-12-17T10:50:41.157Z,38.33
2022-12-17T10:53:42.502Z,36.50
2022-12-17T10:56:42.227Z,37.77
2022-12-17T10:59:46.608Z,40.50
2022-12-17T11:02:46.631Z,38.37
2022-12-17T11:05:47.784Z,36.37
2022-12-17T11:08:42.997Z,37.77
2022-12-17T11:11:31.692Z,38.13
2022-12-17T11:14:20.329Z,39.47
2022-12-17T11:17:14.172Z,39.83
2022-12-17T11:20:13.223Z,38.93
2022-12-17T11:23:10.516Z,38.87
2022-12-17T11:26:23.933Z,37.57
2022-12-17T11:29:10.069Z,37.60
2022-12-17T11:32:01.977Z,40.57
2022-12-17T11:34:47.912Z,38.90
2022-12-17T11:37:39.758Z,38.20
2022-12-17T11:40:56.111Z,37.93
2022-12-17T11:43:50.964Z,38.70
2022-12-17T11:46:51.313Z,39.40
2022-12-17T11:49:47.956Z,40.10
2022-12-17T11:53:04.319Z,40.60
2022-12-17T11:56:36.157Z,36.77
2022-12-17T11:59:52.676Z,43.03
2022-12-17T12:03:26.584Z,41.53
2022-12-17T12:06:18.209Z,39.00
2022-12-17T12:09:29.106Z,39.07
2022-12-17T12:12:31.185Z,40.03
2022-12-17T12:16:10.385Z,38.03
2022-12-17T12:19:14.137Z,37.50
2022-12-17T12:23:00.575Z,37.30
2022-12-17T12:26:32.819Z,37.77
2022-12-17T12:29:39.136Z,37.53
2022-12-17T12:32:57.393Z,37.53
2022-12-17T12:35:47.180Z,36.47
2022-12-17T12:38:51.729Z,33.50
2022-12-17T12:41:48.144Z,32.10
2022-12-17T12:45:12.400Z,34.90
2022-12-17T12:48:39.730Z,32.50
2022-12-17T12:51:48.621Z,32.20
2022-12-17T12:54:49.655Z,30.13
2022-12-17T12:57:56.668Z,30.33
2022-12-17T13:00:57.810Z,30.83
2022-12-17T13:03:55.318Z,33.10
2022-12-17T13:06:40.713Z,33.20
2022-12-17T13:09:17.108Z,33.60
2022-12-17T13:11:46.648Z,33.77
2022-12-17T13:14:33.386Z,34.13
2022-12-17T13:17:09.377Z,32.07
2022-12-17T13:19:47.410Z,36.43
2022-12-17T13:22:23.793Z,30.73
2022-12-17T13:24:55.514Z,33.07
2022-12-17T13:27:35.068Z,31.63
2022-12-17T13:30:17.782Z,32.97
2022-12-17T13:33:23.986Z,30.17
2022-12-17T13:36:26.228Z,28.57
2022-12-17T13:39:21.106Z,30.80
2022-12-17T13:41:57.136Z,31.20
2022-12-17T13:44:39.812Z,31.90
2022-12-17T13:47:28.540Z,27.70
2022-12-17T13:50:32.091Z,30.77
2022-12-17T13:52:47.158Z,28.30
2022-12-17T13:55:25.636Z,30.53
2022-12-17T13:57:54.441Z,29.23
2022-12-17T14:00:30.759Z,31.33
2022-12-17T14:02:58.410Z,29.63
2022-12-17T14:05:33.089Z,28.23
2022-12-17T14:08:03.054Z,28.40
2022-12-17T14:10:30.725Z,27.47
2022-12-17T14:13:18.191Z,27.03
2022-12-17T14:15:53.011Z,27.80
2022-12-17T14:18:21.952Z,26.13
2022-12-17T14:20:55.404Z,29.53
2022-12-17T14:23:31.920Z,28.47
2022-12-17T14:25:59.805Z,23.53
2022-12-17T14:28:50.308Z,22.77
2022-12-17T14:31:27.643Z,26.33
2022-12-17T14:34:11.630Z,24.33
2022-12-17T14:36:44.155Z,25.47
2022-12-17T14:39:30.411Z,26.20
2022-12-17T14:42:29.769Z,25.73
2022-12-17T14:45:28.203Z,25.77
2022-12-17T14:48:01.456Z,26.00
2022-12-17T14:50:36.070Z,23.57
2022-12-17T14:53:26.413Z,22.10
2022-12-17T14:56:00.307Z,25.13
2022-12-17T14:58:28.554Z,24.43
2022-12-17T15:01:12.994Z,23.83
2022-12-17T15:03:48.243Z,23.30
2022-12-17T15:06:20.653Z,33.13
2022-12-17T15:08:50.596Z,28.27
2022-12-17T15:11:22.695Z,27.53
2022-12-17T15:13:54.633Z,26.50
2022-12-17T15:16:24.506Z,27.10
2022-12-17T15:18:52.058Z,37.30
2022-12-17T15:21:20.202Z,33.27
2022-12-17T15:23:48.465Z,25.03
2022-12-17T15:26:17.480Z,37.30
2022-12-17T15:28:46.362Z,24.17
2022-12-17T15:31:17.724Z,23.87
2022-12-17T15:33:46.994Z,26.90
2022-12-17T15:36:14.477Z,23.73
2022-12-17T15:38:41.938Z,23.77
2022-12-17T15:41:27.939Z,24.20
2022-12-17T15:43:55.305Z,23.33
2022-12-17T15:46:22.932Z,23.93
2022-12-17T15:48:50.974Z,24.83
2022-12-17T15:51:21.233Z,25.10
2022-12-17T15:53:49.024Z,25.10
2022-12-17T15:56:34.994Z,31.40
2022-12-17T15:59:02.418Z,23.30
2022-12-17T16:01:29.919Z,28.53
2022-12-17T16:03:58.460Z,23.97
2022-12-17T16:06:26.351Z,23.63
2022-12-17T16:08:53.759Z,22.40
2022-12-17T16:11:21.162Z,29.97
2022-12-17T16:13:54.224Z,24.20
2022-12-17T16:16:23.084Z,21.40
2022-12-17T16:18:50.903Z,28.67
2022-12-17T16:21:18.650Z,25.47
2022-12-17T16:23:46.632Z,48.47
2022-12-17T16:26:14.134Z,37.60
2022-12-17T16:28:44.694Z,35.80
2022-12-17T16:31:15.563Z,36.13
2022-12-17T16:33:44.944Z,24.67
2022-12-17T16:36:16.458Z,49.87
2022-12-17T16:38:49.730Z,24.97
2022-12-17T16:41:18.425Z,25.57
2022-12-17T16:43:47.004Z,28.93
2022-12-17T16:46:34.462Z,31.17
2022-12-17T16:49:28.380Z,32.00
2022-12-17T16:51:57.716Z,25.07
2022-12-17T16:54:29.249Z,31.37
2022-12-17T16:56:56.848Z,27.17
2022-12-17T16:59:24.284Z,24.43
2022-12-17T17:01:52.908Z,22.73
2022-12-17T17:04:23.289Z,24.13
2022-12-17T17:06:54.997Z,22.47
2022-12-17T17:09:23.798Z,22.77
2022-12-17T17:11:52.256Z,23.47
2022-12-17T17:14:20.292Z,22.07
2022-12-17T17:16:47.728Z,21.67
2022-12-17T17:19:15.245Z,21.57
2022-12-17T17:21:49.117Z,21.83
2022-12-17T17:24:21.173Z,22.17
2022-12-17T17:26:50.378Z,21.57
2022-12-17T17:29:18.323Z,22.03
2022-12-17T17:32:10.524Z,21.17
2022-12-17T17:34:33.631Z,21.40
2022-12-17T17:37:01.000Z,20.97
2022-12-17T17:39:32.003Z,21.60
2022-12-17T17:42:00.308Z,21.13
2022-12-17T17:44:27.824Z,21.83
2022-12-17T17:46:55.342Z,21.30
2022-12-17T17:49:22.876Z,20.50
2022-12-17T17:54:39.718Z,20.73
2022-12-17T17:57:07.904Z,21.73
2022-12-17T17:59:35.448Z,21.43
2022-12-17T18:02:03.828Z,20.63
2022-12-17T18:04:32.244Z,21.10
2022-12-17T18:07:24.067Z,21.97
2022-12-17T18:09:47.075Z,21.80
2022-12-17T18:12:32.971Z,20.97
2022-12-17T18:15:17.850Z,21.37
2022-12-17T18:17:50.283Z,27.70
2022-12-17T18:20:18.410Z,21.53
2022-12-17T18:22:46.752Z,20.10
2022-12-17T18:25:15.959Z,19.93
2022-12-17T18:27:43.814Z,20.67
2022-12-17T18:30:12.039Z,20.57
2022-12-17T18:32:39.550Z,20.23
2022-12-17T18:35:07.837Z,20.87
2022-12-17T18:37:35.464Z,23.07
2022-12-17T18:40:03.843Z,22.03
2022-12-17T18:42:50.062Z,25.77
2022-12-17T18:45:17.587Z,124.20
2022-12-17T18:47:45.019Z,36.93
2022-12-17T18:50:13.430Z,21.70
2022-12-17T18:52:41.026Z,47.83
2022-12-17T18:55:11.717Z,22.63
2022-12-17T18:57:39.243Z,53.70
2022-12-17T19:00:07.668Z,127.50
2022-12-17T19:02:35.278Z,26.30
2022-12-17T19:05:02.743Z,36.67
2022-12-17T19:07:30.193Z,34.50
2022-12-17T19:09:57.604Z,28.47
2022-12-17T19:12:25.101Z,20.90
2022-12-17T19:14:52.479Z,18.47
2022-12-17T19:17:19.879Z,23.87
2022-12-17T19:19:48.276Z,24.00
2022-12-17T19:22:15.698Z,21.67
2022-12-17T19:24:43.113Z,21.93
2022-12-17T19:27:10.567Z,17.53
2022-12-17T19:29:37.986Z,19.40
2022-12-17T19:32:05.604Z,18.30
2022-12-17T19:34:35.269Z,22.97
2022-12-17T19:37:02.721Z,17.63
2022-12-17T19:39:30.191Z,20.07
2022-12-17T19:41:57.589Z,18.17
2022-12-17T19:44:25.332Z,18.17
2022-12-17T19:46:52.724Z,17.73
2022-12-17T19:49:20.148Z,17.20
2022-12-17T19:51:47.547Z,17.77
2022-12-17T19:54:15.625Z,17.67
2022-12-17T19:56:45.117Z,17.30
2022-12-17T19:59:13.785Z,16.30
2022-12-17T20:01:48.096Z,17.70
2022-12-17T20:04:16.834Z,17.67
2022-12-17T20:06:45.402Z,16.30
2022-12-17T20:09:14.580Z,16.60
2022-12-17T20:11:42.024Z,15.27
2022-12-17T20:14:18.041Z,15.53
2022-12-17T20:17:06.036Z,17.03
2022-12-17T20:19:34.859Z,14.93
2022-12-17T20:22:05.269Z,16.20
2022-12-17T20:24:33.179Z,15.77
2022-12-17T20:27:01.434Z,16.93
2022-12-17T20:29:29.532Z,19.27
2022-12-17T20:31:57.143Z,15.07
2022-12-17T20:34:25.633Z,13.93
2022-12-17T20:36:54.329Z,15.00
2022-12-17T20:39:27.240Z,14.17
2022-12-17T20:41:56.615Z,15.73
2022-12-17T20:44:24.136Z,14.87
2022-12-17T20:46:51.603Z,14.73
2022-12-17T20:49:19.224Z,14.77
2022-12-17T20:51:46.820Z,14.80
2022-12-17T20:54:14.238Z,15.30
2022-12-17T20:56:41.733Z,14.77
2022-12-17T20:59:14.767Z,16.27
2022-12-17T21:01:42.332Z,15.97
2022-12-17T21:04:12.049Z,16.23
2022-12-17T21:06:46.249Z,16.37
2022-12-17T21:09:16.168Z,16.63
2022-12-17T21:11:43.590Z,15.77
2022-12-17T21:14:17.287Z,15.53
2022-12-17T21:16:46.128Z,16.23
2022-12-17T21:19:18.147Z,18.13
2022-12-17T21:21:45.825Z,20.03
2022-12-17T21:24:13.271Z,16.40
2022-12-17T21:26:43.585Z,17.03
2022-12-17T21:29:12.160Z,17.73
2022-12-17T21:31:51.353Z,15.83
2022-12-17T21:34:23.075Z,15.10
2022-12-17T21:36:51.597Z,17.60
2022-12-17T21:39:20.467Z,16.57
2022-12-17T21:42:09.543Z,16.90
2022-12-17T21:44:37.467Z,16.07
2022-12-17T21:47:05.121Z,18.00
2022-12-17T21:49:32.578Z,19.93
2022-12-17T21:52:01.638Z,18.57
2022-12-17T21:54:29.165Z,19.23
2022-12-17T21:56:56.670Z,18.93
2022-12-17T21:59:24.104Z,20.03
2022-12-17T22:01:52.132Z,18.80
2022-12-17T22:04:19.710Z,19.90
2022-12-17T22:06:49.056Z,19.33
2022-12-17T22:09:26.833Z,20.90
2022-12-17T22:12:29.325Z,21.03
2022-12-17T22:14:56.677Z,19.83
2022-12-17T22:17:24.699Z,20.67
2022-12-17T22:19:52.186Z,21.80
2022-12-17T22:22:19.698Z,23.00
2022-12-17T22:24:47.103Z,23.87
2022-12-17T22:27:14.812Z,24.50
2022-12-17T22:30:00.954Z,25.40
2022-12-17T22:32:46.753Z,25.20
2022-12-17T22:36:25.824Z,23.00
2022-12-17T22:38:04.767Z,24.03
2022-12-17T22:44:28.437Z,25.50
2022-12-17T22:44:49.261Z,25.27
2022-12-17T22:46:27.092Z,25.37
2022-12-17T22:48:56.388Z,24.03
2022-12-17T22:51:39.659Z,24.17
2022-12-17T22:54:13.502Z,25.57
2022-12-17T22:57:35.180Z,25.83
2022-12-17T22:59:31.300Z,25.90
2022-12-17T23:01:58.769Z,25.63
2022-12-17T23:04:26.411Z,26.50
2022-12-17T23:06:53.827Z,26.03
2022-12-17T23:09:21.396Z,25.47
2022-12-17T23:11:49.616Z,26.83
2022-12-17T23:14:18.039Z,26.00
2022-12-17T23:16:46.073Z,26.70
2022-12-17T23:19:13.916Z,28.17
2022-12-17T23:21:41.813Z,24.67
2022-12-17T23:24:09.524Z,23.47
2022-12-17T23:26:37.539Z,23.87
2022-12-17T23:29:10.297Z,24.63
2022-12-17T23:31:42.564Z,24.03
2022-12-17T23:34:10.253Z,21.07
2022-12-17T23:36:37.856Z,21.33
2022-12-17T23:39:05.903Z,21.27
2022-12-17T23:41:33.447Z,22.67
2022-12-17T23:44:01.523Z,22.23
2022-12-17T23:46:30.912Z,21.10
2022-12-17T23:48:58.402Z,21.80
2022-12-17T23:51:26.875Z,22.97
2022-12-17T23:53:54.339Z,22.40
2022-12-17T23:56:28.063Z,23.07
2022-12-17T23:58:59.839Z,22.97
